createdAt,value
2022-12-22T00:00:04.449Z,998.18
2022-12-22T00:03:04.596Z,998.12
2022-12-22T00:06:04.446Z,998.1
2022-12-22T00:09:05.826Z,998.07
2022-12-22T00:12:04.445Z,998.03
2022-12-22T00:15:04.470Z,997.93
2022-12-22T00:18:04.437Z,997.95
2022-12-22T00:21:04.464Z,997.93
2022-12-22T00:24:04.463Z,997.88
2022-12-22T00:27:04.450Z,997.83
2022-12-22T00:30:04.471Z,997.78
2022-12-22T00:33:04.452Z,997.73
2022-12-22T00:36:04.464Z,997.7
2022-12-22T00:39:04.453Z,997.67
2022-12-22T00:42:04.459Z,997.58
2022-12-22T00:45:04.569Z,997.54
2022-12-22T00:48:04.459Z,997.53
2022-12-22T00:51:04.470Z,997.5
2022-12-22T00:54:04.462Z,997.47
2022-12-22T00:57:04.460Z,997.47
2022-12-22T01:00:04.475Z,997.4
2022-12-22T01:03:04.549Z,997.35
2022-12-22T01:06:04.470Z,997.32
2022-12-22T01:09:04.467Z,997.25
2022-12-22T01:12:04.465Z,997.21
2022-12-22T01:15:04.456Z,997.18
2022-12-22T01:18:04.463Z,997.14
2022-12-22T01:21:04.460Z,997.15
2022-12-22T01:24:04.459Z,997.16
2022-12-22T01:27:04.459Z,997.19
2022-12-22T01:30:04.475Z,997.1
2022-12-22T01:33:04.458Z,997.07
2022-12-22T01:36:04.455Z,996.99
2022-12-22T01:39:04.518Z,997.02
2022-12-22T01:42:04.459Z,996.98
2022-12-22T01:45:04.501Z,996.87
2022-12-22T01:48:04.460Z,996.91
2022-12-22T01:51:04.463Z,996.86
2022-12-22T01:54:04.477Z,996.83
2022-12-22T01:57:04.460Z,996.75
2022-12-22T02:00:04.499Z,996.75
2022-12-22T02:03:04.493Z,996.7
2022-12-22T02:06:04.462Z,996.63
2022-12-22T02:09:04.464Z,996.53
2022-12-22T02:12:04.468Z,996.52
2022-12-22T02:15:04.466Z,996.48
2022-12-22T02:18:04.466Z,996.45
2022-12-22T02:21:04.464Z,996.43
2022-12-22T02:24:04.469Z,996.39
2022-12-22T02:27:04.479Z,996.31
2022-12-22T02:30:04.483Z,996.24
2022-12-22T02:33:09.430Z,996.17
2022-12-22T02:36:04.470Z,996.11
2022-12-22T02:39:04.485Z,996.03
2022-12-22T02:42:04.467Z,995.96
2022-12-22T02:45:04.513Z,995.9
2022-12-22T02:48:04.464Z,995.85
2022-12-22T02:51:04.502Z,995.79
2022-12-22T02:54:04.461Z,995.76
2022-12-22T02:57:04.465Z,995.69
2022-12-22T03:00:04.467Z,995.65
2022-12-22T03:03:04.743Z,995.53
2022-12-22T03:06:04.496Z,995.56
2022-12-22T03:09:04.463Z,995.58
2022-12-22T03:12:04.479Z,995.51
2022-12-22T03:15:04.478Z,995.47
2022-12-22T03:18:04.465Z,995.45
2022-12-22T03:21:04.468Z,995.43
2022-12-22T03:24:04.468Z,995.39
2022-12-22T03:27:04.469Z,995.36
2022-12-22T03:30:04.468Z,995.29
2022-12-22T03:33:04.461Z,995.22
2022-12-22T03:36:04.471Z,995.3
2022-12-22T03:39:04.461Z,995.19
2022-12-22T03:42:04.498Z,995.12
2022-12-22T03:45:04.518Z,995.07
2022-12-22T03:48:04.484Z,995.09
2022-12-22T03:51:04.471Z,995.07
2022-12-22T03:54:04.467Z,995.02
2022-12-22T03:57:04.468Z,994.98
2022-12-22T04:00:04.471Z,994.95
2022-12-22T04:03:04.535Z,994.95
2022-12-22T04:06:04.470Z,994.91
2022-12-22T04:09:04.471Z,994.83
2022-12-22T04:12:04.474Z,994.86
2022-12-22T04:15:04.486Z,994.8
2022-12-22T04:18:04.481Z,994.78
2022-12-22T04:21:04.471Z,994.7
2022-12-22T04:24:04.470Z,994.72
2022-12-22T04:27:04.470Z,994.63
2022-12-22T04:30:04.473Z,994.62
2022-12-22T04:33:04.469Z,994.6
2022-12-22T04:36:04.470Z,994.56
2022-12-22T04:39:04.465Z,994.47
2022-12-22T04:42:04.469Z,994.47
2022-12-22T04:45:04.478Z,994.48
2022-12-22T04:48:04.464Z,994.48
2022-12-22T04:51:04.470Z,994.45
2022-12-22T04:54:04.475Z,994.45
2022-12-22T04:57:04.470Z,994.47
2022-12-22T05:00:04.471Z,994.44
2022-12-22T05:03:04.595Z,994.42
2022-12-22T05:06:04.473Z,994.35
2022-12-22T05:09:04.479Z,994.29
2022-12-22T05:12:04.473Z,994.3
2022-12-22T05:15:04.474Z,994.25
2022-12-22T05:18:04.466Z,994.19
2022-12-22T05:21:04.466Z,994.13
2022-12-22T05:24:04.477Z,994.09
2022-12-22T05:27:04.471Z,994.09
2022-12-22T05:30:04.472Z,994.15
2022-12-22T05:33:04.471Z,994.13
2022-12-22T05:36:04.492Z,994.12
2022-12-22T05:39:04.479Z,994.09
2022-12-22T05:42:04.488Z,994.06
2022-12-22T05:45:04.625Z,994.04
2022-12-22T05:48:04.479Z,993.99
2022-12-22T05:51:04.475Z,994.04
2022-12-22T05:54:04.478Z,993.93
2022-12-22T05:57:04.476Z,993.92
2022-12-22T06:00:04.481Z,993.93
2022-12-22T06:03:04.586Z,993.86
2022-12-22T06:06:04.474Z,993.83
2022-12-22T06:09:04.489Z,993.77
2022-12-22T06:12:04.484Z,993.79
2022-12-22T06:15:04.477Z,993.73
2022-12-22T06:18:04.479Z,993.71
2022-12-22T06:21:04.478Z,993.66
2022-12-22T06:24:04.479Z,993.6
2022-12-22T06:27:04.476Z,993.54
2022-12-22T06:30:04.487Z,993.54
2022-12-22T06:33:04.483Z,993.53
2022-12-22T06:36:04.476Z,993.55
2022-12-22T06:39:04.476Z,993.53
2022-12-22T06:42:04.484Z,993.54
2022-12-22T06:45:04.527Z,993.53
2022-12-22T06:48:04.478Z,993.53
2022-12-22T06:51:04.483Z,993.5
2022-12-22T06:54:04.491Z,993.55
2022-12-22T06:57:04.503Z,993.62
2022-12-22T07:00:04.500Z,993.62
2022-12-22T07:03:04.645Z,993.59
2022-12-22T07:06:04.490Z,993.59
2022-12-22T07:09:04.485Z,993.6
2022-12-22T07:12:04.494Z,993.59
2022-12-22T07:15:04.545Z,993.64
2022-12-22T07:18:04.488Z,993.72
2022-12-22T07:21:04.493Z,993.78
2022-12-22T07:24:04.496Z,993.76
2022-12-22T07:27:04.515Z,993.77
2022-12-22T07:30:04.524Z,993.87
2022-12-22T07:33:04.502Z,993.96
2022-12-22T07:36:04.495Z,993.91
2022-12-22T07:39:04.500Z,993.87
2022-12-22T07:42:04.499Z,993.95
2022-12-22T07:45:04.576Z,993.91
2022-12-22T07:48:04.485Z,993.91
2022-12-22T07:51:04.502Z,993.91
2022-12-22T07:54:04.499Z,993.91
2022-12-22T07:57:04.499Z,993.88
2022-12-22T08:00:04.517Z,993.87
2022-12-22T08:03:04.583Z,993.88
2022-12-22T08:06:04.493Z,993.9
2022-12-22T08:09:04.511Z,993.94
2022-12-22T08:12:04.502Z,993.9
2022-12-22T08:15:04.498Z,993.88
2022-12-22T08:18:04.496Z,993.87
2022-12-22T08:21:04.508Z,993.83
2022-12-22T08:24:04.496Z,993.82
2022-12-22T08:27:04.518Z,993.8
2022-12-22T08:30:04.577Z,993.81
2022-12-22T08:33:04.501Z,993.82
2022-12-22T08:36:07.922Z,993.86
2022-12-22T08:39:04.521Z,993.81
2022-12-22T08:42:04.500Z,993.83
2022-12-22T08:45:04.569Z,993.81
2022-12-22T08:48:04.524Z,993.84
2022-12-22T08:51:04.506Z,993.86
2022-12-22T08:54:05.732Z,993.82
2022-12-22T08:57:04.507Z,993.83
2022-12-22T09:00:04.540Z,993.82
2022-12-22T09:03:04.625Z,993.84
2022-12-22T09:06:04.518Z,993.87
2022-12-22T09:09:04.512Z,993.93
2022-12-22T09:12:04.516Z,993.95
2022-12-22T09:15:04.544Z,994.01
2022-12-22T09:18:04.507Z,994.04
2022-12-22T09:21:04.521Z,994.1
2022-12-22T09:24:04.516Z,994.22
2022-12-22T09:27:04.518Z,994.24
2022-12-22T09:30:04.513Z,994.37
2022-12-22T09:33:04.518Z,994.44
2022-12-22T09:36:04.518Z,994.52
2022-12-22T09:39:04.518Z,994.47
2022-12-22T09:42:04.566Z,994.45
2022-12-22T09:45:04.593Z,994.51
2022-12-22T09:48:04.503Z,994.58
2022-12-22T09:51:04.523Z,994.59
2022-12-22T09:54:04.523Z,994.62
2022-12-22T09:57:04.517Z,994.6
2022-12-22T10:00:04.527Z,994.64
2022-12-22T10:03:04.585Z,994.64
2022-12-22T10:06:04.520Z,994.65
2022-12-22T10:09:05.413Z,994.71
2022-12-22T10:12:04.640Z,994.83
2022-12-22T10:15:04.543Z,994.85
2022-12-22T10:18:04.534Z,994.91
2022-12-22T10:21:04.522Z,994.96
2022-12-22T10:24:04.531Z,995.01
2022-12-22T10:27:04.532Z,995
2022-12-22T10:30:04.548Z,995
2022-12-22T10:33:04.554Z,995
2022-12-22T10:36:04.529Z,995.01
2022-12-22T10:39:04.553Z,995
2022-12-22T10:42:04.538Z,995.07
2022-12-22T10:45:04.594Z,995.08
2022-12-22T10:48:04.529Z,995.08
2022-12-22T10:51:04.523Z,995.09
2022-12-22T10:54:04.579Z,995.13
2022-12-22T10:57:04.543Z,995.19
2022-12-22T11:00:04.564Z,995.26
2022-12-22T11:03:04.680Z,995.27
2022-12-22T11:06:04.532Z,995.3
2022-12-22T11:09:31.689Z,995.34
2022-12-22T11:12:04.542Z,995.34
2022-12-22T11:15:04.532Z,995.47
2022-12-22T11:18:04.531Z,995.5
2022-12-22T11:21:04.543Z,995.59
2022-12-22T11:24:04.533Z,995.6
2022-12-22T11:27:04.528Z,995.68
2022-12-22T11:30:04.604Z,995.83
2022-12-22T11:33:04.535Z,995.83
2022-12-22T11:36:04.545Z,995.87
2022-12-22T11:39:04.540Z,995.9
2022-12-22T11:42:04.547Z,995.94
2022-12-22T11:45:04.570Z,995.94
2022-12-22T11:48:04.535Z,996.04
2022-12-22T11:51:10.068Z,996.13
2022-12-22T11:54:10.525Z,996.21
2022-12-22T11:57:04.536Z,996.29
2022-12-22T12:00:04.570Z,996.25
2022-12-22T12:03:04.629Z,996.34
2022-12-22T12:06:04.548Z,996.43
2022-12-22T12:09:04.547Z,996.5
2022-12-22T12:12:04.559Z,996.54
2022-12-22T12:15:04.560Z,996.56
2022-12-22T12:18:04.538Z,996.63
2022-12-22T12:21:04.542Z,996.69
2022-12-22T12:24:04.545Z,996.73
2022-12-22T12:27:04.546Z,996.81
2022-12-22T12:30:36.771Z,996.85
2022-12-22T12:33:04.542Z,996.9
2022-12-22T12:36:04.562Z,996.95
2022-12-22T12:39:07.787Z,996.99
2022-12-22T12:42:04.541Z,997.04
2022-12-22T12:45:04.582Z,997.14
2022-12-22T12:48:04.540Z,997.18
2022-12-22T12:51:04.541Z,997.18
2022-12-22T12:54:04.543Z,997.25
2022-12-22T12:57:04.565Z,997.24
2022-12-22T13:00:04.571Z,997.26
2022-12-22T13:03:04.717Z,997.24
2022-12-22T13:06:04.548Z,997.3
2022-12-22T13:09:31.235Z,997.42
2022-12-22T13:12:12.803Z,997.45
2022-12-22T13:15:04.575Z,997.53
2022-12-22T13:18:04.660Z,997.58
2022-12-22T13:21:34.124Z,997.67
2022-12-22T13:24:24.495Z,997.77
2022-12-22T13:27:04.580Z,997.78
2022-12-22T13:30:08.178Z,997.85
2022-12-22T13:33:04.559Z,997.81
2022-12-22T13:36:04.563Z,997.89
2022-12-22T13:39:04.561Z,997.93
2022-12-22T13:42:04.630Z,997.92
2022-12-22T13:45:04.630Z,998.02
2022-12-22T13:48:04.569Z,998.1
2022-12-22T13:51:04.562Z,998.08
2022-12-22T13:54:09.539Z,998.08
2022-12-22T13:57:04.566Z,998.1
2022-12-22T14:00:04.648Z,998.15
2022-12-22T14:03:04.662Z,998.2
2022-12-22T14:06:04.561Z,998.14
2022-12-22T14:09:04.560Z,998.13
2022-12-22T14:12:04.583Z,998.13
2022-12-22T14:15:04.566Z,998.12
2022-12-22T14:18:04.561Z,998.21
2022-12-22T14:21:04.569Z,998.24
2022-12-22T14:24:04.574Z,998.31
2022-12-22T14:27:04.589Z,998.31
2022-12-22T14:30:04.660Z,998.36
2022-12-22T14:33:04.563Z,998.39
2022-12-22T14:36:04.575Z,998.33
2022-12-22T14:39:09.426Z,998.38
2022-12-22T14:42:04.572Z,998.38
2022-12-22T14:45:04.602Z,998.37
2022-12-22T14:48:04.623Z,998.51
2022-12-22T14:51:04.568Z,998.53
2022-12-22T14:54:04.569Z,998.57
2022-12-22T14:57:07.351Z,998.58
2022-12-22T15:00:04.552Z,998.62
2022-12-22T15:03:04.666Z,998.62
2022-12-22T15:06:04.568Z,998.63
2022-12-22T15:09:04.574Z,998.72
2022-12-22T15:12:04.571Z,998.74
2022-12-22T15:15:04.568Z,998.74
2022-12-22T15:18:04.573Z,998.72
2022-12-22T15:21:04.568Z,998.73
2022-12-22T15:24:04.578Z,998.76
2022-12-22T15:27:04.571Z,998.71
2022-12-22T15:30:04.639Z,998.69
2022-12-22T15:33:04.561Z,998.71
2022-12-22T15:36:04.572Z,998.81
2022-12-22T15:39:04.581Z,998.86
2022-12-22T15:42:04.578Z,998.9
2022-12-22T15:45:04.637Z,998.88
2022-12-22T15:48:04.571Z,998.81
2022-12-22T15:51:04.582Z,998.84
2022-12-22T15:54:04.605Z,998.9
2022-12-22T15:57:04.573Z,998.99
2022-12-22T16:00:04.635Z,998.99
2022-12-22T16:03:04.712Z,999.05
2022-12-22T16:06:04.585Z,999.02
2022-12-22T16:09:04.570Z,998.98
2022-12-22T16:12:04.590Z,998.98
2022-12-22T16:15:04.573Z,998.92
2022-12-22T16:18:04.572Z,998.98
2022-12-22T16:21:04.573Z,998.95
2022-12-22T16:24:04.582Z,998.87
2022-12-22T16:27:04.578Z,998.85
2022-12-22T16:30:04.580Z,998.84
2022-12-22T16:33:04.579Z,998.79
2022-12-22T16:36:04.580Z,998.74
2022-12-22T16:39:04.595Z,998.68
2022-12-22T16:42:04.586Z,998.68
2022-12-22T16:45:04.627Z,998.68
2022-12-22T16:48:04.579Z,998.73
2022-12-22T16:51:04.592Z,998.71
2022-12-22T16:54:04.595Z,998.57
2022-12-22T16:57:04.628Z,998.56
2022-12-22T17:00:04.595Z,998.54
2022-12-22T17:03:04.861Z,998.54
2022-12-22T17:06:04.683Z,998.55
2022-12-22T17:09:04.598Z,998.53
2022-12-22T17:12:04.586Z,998.47
2022-12-22T17:15:04.594Z,998.49
2022-12-22T17:18:04.589Z,998.47
2022-12-22T17:21:04.585Z,998.48
2022-12-22T17:24:04.635Z,998.4
2022-12-22T17:27:04.590Z,998.32
2022-12-22T17:30:04.604Z,998.3
2022-12-22T17:33:04.587Z,998.27
2022-12-22T17:36:04.590Z,998.18
2022-12-22T17:39:04.587Z,998.18
2022-12-22T17:42:04.586Z,998.12
2022-12-22T17:45:04.698Z,998.07
2022-12-22T17:48:04.593Z,998.07
2022-12-22T17:51:04.621Z,998.05
2022-12-22T17:54:04.583Z,998.01
2022-12-22T17:57:04.585Z,997.97
2022-12-22T18:00:04.604Z,997.95
2022-12-22T18:03:04.806Z,997.87
2022-12-22T18:06:04.587Z,997.84
2022-12-22T18:09:04.596Z,997.79
2022-12-22T18:12:04.590Z,997.75
2022-12-22T18:15:04.585Z,997.7
2022-12-22T18:18:04.584Z,997.69
2022-12-22T18:21:06.813Z,997.64
2022-12-22T18:24:04.590Z,997.64
2022-12-22T18:27:04.594Z,997.59
2022-12-22T18:30:04.587Z,997.59
2022-12-22T18:33:04.589Z,997.54
2022-12-22T18:36:04.591Z,997.5
2022-12-22T18:39:04.592Z,997.5
2022-12-22T18:42:04.587Z,997.45
2022-12-22T18:45:04.619Z,997.47
2022-12-22T18:48:04.590Z,997.41
2022-12-22T18:51:04.590Z,997.36
2022-12-22T18:54:04.591Z,997.33
2022-12-22T18:57:04.591Z,997.28
2022-12-22T19:00:08.232Z,997.2
2022-12-22T19:03:04.674Z,997.17
2022-12-22T19:06:04.653Z,997.15
2022-12-22T19:09:04.584Z,997.13
2022-12-22T19:12:04.599Z,997.11
2022-12-22T19:15:04.595Z,997.08
2022-12-22T19:18:04.586Z,997.06
2022-12-22T19:21:04.588Z,997.01
2022-12-22T19:24:04.598Z,996.97
2022-12-22T19:27:04.589Z,996.9
2022-12-22T19:30:05.007Z,996.95
2022-12-22T19:33:04.706Z,996.96
2022-12-22T19:36:04.601Z,996.93
2022-12-22T19:39:05.722Z,996.85
2022-12-22T19:42:04.606Z,996.83
2022-12-22T19:45:10.387Z,996.76
2022-12-22T19:48:04.587Z,996.75
2022-12-22T19:51:04.589Z,996.69
2022-12-22T19:54:04.588Z,996.63
2022-12-22T19:57:04.583Z,996.55
2022-12-22T20:00:04.657Z,996.5
2022-12-22T20:03:04.689Z,996.45
2022-12-22T20:06:04.589Z,996.41
2022-12-22T20:09:04.583Z,996.43
2022-12-22T20:12:04.594Z,996.45
2022-12-22T20:15:04.584Z,996.39
2022-12-22T20:18:04.592Z,996.32
2022-12-22T20:21:04.586Z,996.3
2022-12-22T20:24:04.594Z,996.27
2022-12-22T20:27:04.594Z,996.18
2022-12-22T20:30:04.599Z,996.15
2022-12-22T20:33:04.583Z,996.16
2022-12-22T20:36:04.583Z,996.1
2022-12-22T20:39:04.591Z,996.06
2022-12-22T20:42:04.583Z,996.1
2022-12-22T20:45:05.049Z,996.05
2022-12-22T20:48:04.594Z,996.04
2022-12-22T20:51:04.596Z,996.03
2022-12-22T20:54:04.595Z,995.97
2022-12-22T20:57:04.595Z,995.95
2022-12-22T21:00:04.599Z,995.88
2022-12-22T21:03:04.686Z,995.86
2022-12-22T21:06:04.667Z,995.83
2022-12-22T21:09:04.603Z,995.83
2022-12-22T21:12:04.615Z,995.77
2022-12-22T21:15:04.609Z,995.73
2022-12-22T21:18:04.603Z,995.75
2022-12-22T21:21:04.601Z,995.7
2022-12-22T21:24:04.624Z,995.66
2022-12-22T21:27:04.609Z,995.65
2022-12-22T21:30:04.605Z,995.69
2022-12-22T21:33:04.617Z,995.67
2022-12-22T21:36:04.601Z,995.61
2022-12-22T21:39:04.610Z,995.56
2022-12-22T21:42:04.987Z,995.51
2022-12-22T21:45:04.712Z,995.43
2022-12-22T21:48:04.610Z,995.39
2022-12-22T21:51:04.615Z,995.39
2022-12-22T21:54:04.627Z,995.39
2022-12-22T21:57:04.625Z,995.37
2022-12-22T22:00:04.631Z,995.38
2022-12-22T22:03:04.790Z,995.39
2022-12-22T22:06:04.623Z,995.45
2022-12-22T22:09:04.624Z,995.42
2022-12-22T22:12:04.631Z,995.39
2022-12-22T22:15:04.620Z,995.42
2022-12-22T22:18:07.130Z,995.41
2022-12-22T22:21:04.619Z,995.32
2022-12-22T22:24:04.613Z,995.33
2022-12-22T22:27:04.630Z,995.31
2022-12-22T22:30:04.628Z,995.21
2022-12-22T22:33:04.634Z,995.19
2022-12-22T22:36:05.995Z,995.16
2022-12-22T22:39:04.798Z,995.06
2022-12-22T22:42:04.714Z,995.09
2022-12-22T22:45:04.711Z,995.07
2022-12-22T22:48:09.705Z,995.03
2022-12-22T22:51:04.701Z,995.08
2022-12-22T22:54:04.699Z,995.11
2022-12-22T22:57:04.676Z,995.06
2022-12-22T23:00:04.685Z,995.12
2022-12-22T23:03:04.743Z,995.1
2022-12-22T23:06:04.685Z,995.07
2022-12-22T23:09:04.693Z,995.13
2022-12-22T23:12:04.685Z,995.12
2022-12-22T23:15:04.672Z,995.04
2022-12-22T23:18:04.689Z,995.03
2022-12-22T23:21:04.684Z,995.06
2022-12-22T23:24:04.697Z,995.06
2022-12-22T23:27:04.690Z,995.03
2022-12-22T23:30:04.733Z,994.99
2022-12-22T23:33:04.691Z,995
2022-12-22T23:36:04.691Z,994.98
2022-12-22T23:39:04.687Z,994.95
2022-12-22T23:42:04.695Z,994.95
2022-12-22T23:45:04.710Z,994.94
2022-12-22T23:48:04.689Z,994.94
2022-12-22T23:51:04.691Z,994.9
2022-12-22T23:54:04.829Z,994.88
2022-12-22T23:57:04.790Z,994.88
